Kiahsville, West Virginia
Current Conditions -  °F | °C
As of 1:51 AM on Sunday 21 Dec 2014 (Local Time) from KHTS Reporting Station
Scattered Clouds Scattered Clouds  
Wind Chill: 24°   Ceiling: Unl
Heat Index: 29°   Visibility: 9mi
Dew Point: 26°   Wind: 5mph
Humidity: 89%   Direction: 350°N
Pressure: 30.28"   Gusts: NA
Location:  38.09°N, 82.33°W
Report Text: KHTS 210651Z 35004KT 9SM SCT050 M02/M03 A3028 RMK AO2 SLP260 T10171033
Loading
Personal Weather Stations






























Interactive Weather Map New forecast layout! Learn more

10-Day Weather Forecast

Advertisements
Track Severe Weather on mobile